sensor_id;sensor_type;location;lat;lon;timestamp;P1;durP1;ratioP1;P2;durP2;ratioP2
74620;SDS011;64861;47.546;19.254;2022-12-29T00:01:32;8.63;;;4.80;;
74620;SDS011;64861;47.546;19.254;2022-12-29T00:03:57;9.30;;;5.20;;
74620;SDS011;64861;47.546;19.254;2022-12-29T00:06:23;8.27;;;4.78;;
74620;SDS011;64861;47.546;19.254;2022-12-29T00:08:49;9.18;;;5.25;;
74620;SDS011;64861;47.546;19.254;2022-12-29T00:11:15;8.30;;;5.10;;
74620;SDS011;64861;47.546;19.254;2022-12-29T00:13:42;9.07;;;5.38;;
74620;SDS011;64861;47.546;19.254;2022-12-29T00:16:27;10.77;;;5.50;;
74620;SDS011;64861;47.546;19.254;2022-12-29T00:18:53;9.98;;;5.63;;
74620;SDS011;64861;47.546;19.254;2022-12-29T00:21:20;9.30;;;5.38;;
74620;SDS011;64861;47.546;19.254;2022-12-29T00:24:06;9.10;;;5.20;;
74620;SDS011;64861;47.546;19.254;2022-12-29T00:27:14;8.85;;;4.95;;
74620;SDS011;64861;47.546;19.254;2022-12-29T00:29:57;9.88;;;5.40;;
74620;SDS011;64861;47.546;19.254;2022-12-29T00:32:41;9.73;;;5.28;;
74620;SDS011;64861;47.546;19.254;2022-12-29T00:35:28;9.45;;;5.35;;
74620;SDS011;64861;47.546;19.254;2022-12-29T00:37:56;9.25;;;5.38;;
74620;SDS011;64861;47.546;19.254;2022-12-29T00:40:42;8.90;;;5.28;;
74620;SDS011;64861;47.546;19.254;2022-12-29T00:43:26;8.95;;;5.10;;
74620;SDS011;64861;47.546;19.254;2022-12-29T00:46:10;9.27;;;5.18;;
74620;SDS011;64861;47.546;19.254;2022-12-29T00:48:35;11.02;;;5.57;;
74620;SDS011;64861;47.546;19.254;2022-12-29T00:51:19;9.98;;;5.70;;
74620;SDS011;64861;47.546;19.254;2022-12-29T00:53:45;8.95;;;5.35;;
74620;SDS011;64861;47.546;19.254;2022-12-29T00:56:10;9.18;;;5.30;;
74620;SDS011;64861;47.546;19.254;2022-12-29T00:58:36;10.38;;;5.53;;
74620;SDS011;64861;47.546;19.254;2022-12-29T01:01:04;9.95;;;5.30;;
74620;SDS011;64861;47.546;19.254;2022-12-29T01:03:32;9.40;;;5.35;;
74620;SDS011;64861;47.546;19.254;2022-12-29T01:06:08;9.98;;;5.65;;
74620;SDS011;64861;47.546;19.254;2022-12-29T01:08:35;9.45;;;5.03;;
74620;SDS011;64861;47.546;19.254;2022-12-29T01:11:01;10.65;;;5.47;;
74620;SDS011;64861;47.546;19.254;2022-12-29T01:13:29;8.40;;;5.15;;
74620;SDS011;64861;47.546;19.254;2022-12-29T01:15:55;10.20;;;5.18;;
74620;SDS011;64861;47.546;19.254;2022-12-29T01:18:21;9.75;;;5.22;;
74620;SDS011;64861;47.546;19.254;2022-12-29T01:20:47;9.13;;;5.20;;
74620;SDS011;64861;47.546;19.254;2022-12-29T01:23:13;8.45;;;4.80;;
74620;SDS011;64861;47.546;19.254;2022-12-29T01:25:39;9.90;;;5.43;;
74620;SDS011;64861;47.546;19.254;2022-12-29T01:28:04;10.52;;;5.50;;
74620;SDS011;64861;47.546;19.254;2022-12-29T01:30:32;9.70;;;4.82;;
74620;SDS011;64861;47.546;19.254;2022-12-29T01:32:57;9.80;;;5.45;;
74620;SDS011;64861;47.546;19.254;2022-12-29T01:35:23;10.05;;;5.72;;
74620;SDS011;64861;47.546;19.254;2022-12-29T01:37:48;8.10;;;4.78;;
74620;SDS011;64861;47.546;19.254;2022-12-29T01:40:14;8.90;;;5.53;;
74620;SDS011;64861;47.546;19.254;2022-12-29T01:42:39;8.30;;;5.10;;
74620;SDS011;64861;47.546;19.254;2022-12-29T01:45:14;10.30;;;5.65;;
74620;SDS011;64861;47.546;19.254;2022-12-29T01:47:41;10.18;;;5.35;;
74620;SDS011;64861;47.546;19.254;2022-12-29T01:50:11;9.85;;;5.45;;
74620;SDS011;64861;47.546;19.254;2022-12-29T01:52:44;9.05;;;5.30;;
74620;SDS011;64861;47.546;19.254;2022-12-29T01:55:16;9.82;;;5.07;;
74620;SDS011;64861;47.546;19.254;2022-12-29T01:57:44;8.65;;;5.18;;
74620;SDS011;64861;47.546;19.254;2022-12-29T02:00:14;9.00;;;5.25;;
74620;SDS011;64861;47.546;19.254;2022-12-29T02:02:44;10.20;;;5.47;;
74620;SDS011;64861;47.546;19.254;2022-12-29T02:05:17;9.95;;;5.20;;
74620;SDS011;64861;47.546;19.254;2022-12-29T02:07:55;9.38;;;5.35;;
74620;SDS011;64861;47.546;19.254;2022-12-29T02:10:21;9.23;;;5.38;;
74620;SDS011;64861;47.546;19.254;2022-12-29T02:12:49;9.90;;;5.78;;
74620;SDS011;64861;47.546;19.254;2022-12-29T02:15:16;9.80;;;5.07;;
74620;SDS011;64861;47.546;19.254;2022-12-29T02:18:03;8.55;;;5.25;;
74620;SDS011;64861;47.546;19.254;2022-12-29T02:23:46;9.30;;;4.93;;
74620;SDS011;64861;47.546;19.254;2022-12-29T02:32:13;8.95;;;5.18;;
74620;SDS011;64861;47.546;19.254;2022-12-29T02:34:48;9.63;;;5.53;;
74620;SDS011;64861;47.546;19.254;2022-12-29T02:37:32;8.93;;;5.20;;
74620;SDS011;64861;47.546;19.254;2022-12-29T02:43:26;9.00;;;5.28;;
74620;SDS011;64861;47.546;19.254;2022-12-29T02:45:58;10.10;;;5.45;;
74620;SDS011;64861;47.546;19.254;2022-12-29T02:48:28;9.27;;;5.10;;
74620;SDS011;64861;47.546;19.254;2022-12-29T02:53:55;8.98;;;4.82;;
74620;SDS011;64861;47.546;19.254;2022-12-29T02:56:40;8.60;;;5.25;;
74620;SDS011;64861;47.546;19.254;2022-12-29T02:59:06;8.65;;;4.97;;
74620;SDS011;64861;47.546;19.254;2022-12-29T03:01:50;8.45;;;4.90;;
74620;SDS011;64861;47.546;19.254;2022-12-29T03:04:40;8.55;;;5.15;;
74620;SDS011;64861;47.546;19.254;2022-12-29T03:13:33;10.52;;;4.90;;
74620;SDS011;64861;47.546;19.254;2022-12-29T03:16:07;8.55;;;4.93;;
74620;SDS011;64861;47.546;19.254;2022-12-29T03:18:41;9.40;;;4.93;;
74620;SDS011;64861;47.546;19.254;2022-12-29T03:21:56;9.15;;;5.18;;
74620;SDS011;64861;47.546;19.254;2022-12-29T03:24:20;9.63;;;5.03;;
74620;SDS011;64861;47.546;19.254;2022-12-29T03:26:55;9.05;;;5.00;;
74620;SDS011;64861;47.546;19.254;2022-12-29T03:29:23;10.05;;;5.57;;
74620;SDS011;64861;47.546;19.254;2022-12-29T03:31:50;8.90;;;4.95;;
74620;SDS011;64861;47.546;19.254;2022-12-29T03:34:18;9.77;;;5.18;;
74620;SDS011;64861;47.546;19.254;2022-12-29T03:36:53;9.70;;;5.30;;
74620;SDS011;64861;47.546;19.254;2022-12-29T03:39:24;8.98;;;4.82;;
74620;SDS011;64861;47.546;19.254;2022-12-29T03:41:51;8.27;;;4.80;;
74620;SDS011;64861;47.546;19.254;2022-12-29T03:44:30;9.50;;;5.43;;
74620;SDS011;64861;47.546;19.254;2022-12-29T03:46:57;8.63;;;4.88;;
74620;SDS011;64861;47.546;19.254;2022-12-29T03:49:22;8.80;;;4.90;;
74620;SDS011;64861;47.546;19.254;2022-12-29T03:51:48;8.38;;;4.90;;
74620;SDS011;64861;47.546;19.254;2022-12-29T03:54:13;8.98;;;5.00;;
74620;SDS011;64861;47.546;19.254;2022-12-29T03:56:39;8.90;;;5.05;;
74620;SDS011;64861;47.546;19.254;2022-12-29T03:59:04;9.05;;;5.20;;
74620;SDS011;64861;47.546;19.254;2022-12-29T04:01:29;7.85;;;4.70;;
74620;SDS011;64861;47.546;19.254;2022-12-29T04:03:55;8.88;;;4.97;;
74620;SDS011;64861;47.546;19.254;2022-12-29T04:06:20;8.60;;;4.93;;
74620;SDS011;64861;47.546;19.254;2022-12-29T04:08:46;8.45;;;4.95;;
74620;SDS011;64861;47.546;19.254;2022-12-29T04:11:11;9.35;;;4.72;;
74620;SDS011;64861;47.546;19.254;2022-12-29T04:13:36;9.25;;;5.10;;
74620;SDS011;64861;47.546;19.254;2022-12-29T04:16:05;8.45;;;4.57;;
74620;SDS011;64861;47.546;19.254;2022-12-29T04:18:31;8.52;;;4.50;;
74620;SDS011;64861;47.546;19.254;2022-12-29T04:20:57;7.97;;;4.85;;
74620;SDS011;64861;47.546;19.254;2022-12-29T04:23:25;8.05;;;4.72;;
74620;SDS011;64861;47.546;19.254;2022-12-29T04:25:52;8.15;;;4.82;;
74620;SDS011;64861;47.546;19.254;2022-12-29T04:28:17;8.88;;;4.88;;
74620;SDS011;64861;47.546;19.254;2022-12-29T04:30:43;9.38;;;5.38;;
74620;SDS011;64861;47.546;19.254;2022-12-29T04:33:09;8.50;;;4.72;;
74620;SDS011;64861;47.546;19.254;2022-12-29T04:35:35;8.68;;;4.80;;
74620;SDS011;64861;47.546;19.254;2022-12-29T04:38:01;7.70;;;4.93;;
74620;SDS011;64861;47.546;19.254;2022-12-29T04:40:27;9.15;;;5.13;;
74620;SDS011;64861;47.546;19.254;2022-12-29T04:42:52;8.98;;;5.10;;
74620;SDS011;64861;47.546;19.254;2022-12-29T04:45:18;8.68;;;4.90;;
74620;SDS011;64861;47.546;19.254;2022-12-29T04:47:43;9.40;;;5.00;;
74620;SDS011;64861;47.546;19.254;2022-12-29T04:50:09;7.78;;;4.43;;
74620;SDS011;64861;47.546;19.254;2022-12-29T04:52:35;8.75;;;5.13;;
74620;SDS011;64861;47.546;19.254;2022-12-29T04:55:00;8.07;;;4.63;;
74620;SDS011;64861;47.546;19.254;2022-12-29T04:57:26;8.15;;;4.63;;
74620;SDS011;64861;47.546;19.254;2022-12-29T04:59:52;7.85;;;4.90;;
74620;SDS011;64861;47.546;19.254;2022-12-29T05:02:17;7.88;;;4.90;;
74620;SDS011;64861;47.546;19.254;2022-12-29T05:04:43;8.23;;;4.72;;
74620;SDS011;64861;47.546;19.254;2022-12-29T05:07:08;8.52;;;4.95;;
74620;SDS011;64861;47.546;19.254;2022-12-29T05:09:34;8.70;;;5.03;;
74620;SDS011;64861;47.546;19.254;2022-12-29T05:11:59;8.38;;;5.05;;
74620;SDS011;64861;47.546;19.254;2022-12-29T05:14:25;9.15;;;5.32;;
74620;SDS011;64861;47.546;19.254;2022-12-29T05:16:50;8.13;;;5.20;;
74620;SDS011;64861;47.546;19.254;2022-12-29T05:19:16;8.50;;;5.00;;
74620;SDS011;64861;47.546;19.254;2022-12-29T05:21:42;9.88;;;5.65;;
74620;SDS011;64861;47.546;19.254;2022-12-29T05:24:08;8.75;;;5.22;;
74620;SDS011;64861;47.546;19.254;2022-12-29T05:26:33;8.25;;;5.05;;
74620;SDS011;64861;47.546;19.254;2022-12-29T05:28:59;8.27;;;5.13;;
74620;SDS011;64861;47.546;19.254;2022-12-29T05:31:25;8.80;;;4.90;;
74620;SDS011;64861;47.546;19.254;2022-12-29T05:33:51;9.02;;;5.05;;
74620;SDS011;64861;47.546;19.254;2022-12-29T05:36:16;8.07;;;4.88;;
74620;SDS011;64861;47.546;19.254;2022-12-29T05:38:42;8.43;;;5.18;;
74620;SDS011;64861;47.546;19.254;2022-12-29T05:41:08;8.15;;;4.75;;
74620;SDS011;64861;47.546;19.254;2022-12-29T05:43:34;8.15;;;4.82;;
74620;SDS011;64861;47.546;19.254;2022-12-29T05:45:59;7.60;;;4.55;;
74620;SDS011;64861;47.546;19.254;2022-12-29T05:48:25;9.00;;;5.20;;
74620;SDS011;64861;47.546;19.254;2022-12-29T05:50:50;8.80;;;4.93;;
74620;SDS011;64861;47.546;19.254;2022-12-29T05:53:16;10.77;;;5.55;;
74620;SDS011;64861;47.546;19.254;2022-12-29T05:55:42;9.25;;;4.97;;
74620;SDS011;64861;47.546;19.254;2022-12-29T05:58:09;8.13;;;4.85;;
74620;SDS011;64861;47.546;19.254;2022-12-29T06:00:34;8.45;;;5.15;;
74620;SDS011;64861;47.546;19.254;2022-12-29T06:03:00;8.77;;;5.10;;
74620;SDS011;64861;47.546;19.254;2022-12-29T06:05:25;8.82;;;5.10;;
74620;SDS011;64861;47.546;19.254;2022-12-29T06:07:51;9.10;;;5.03;;
74620;SDS011;64861;47.546;19.254;2022-12-29T06:10:16;9.38;;;5.00;;
74620;SDS011;64861;47.546;19.254;2022-12-29T06:12:42;9.52;;;5.63;;
74620;SDS011;64861;47.546;19.254;2022-12-29T06:15:07;8.38;;;4.90;;
74620;SDS011;64861;47.546;19.254;2022-12-29T06:17:33;10.23;;;5.55;;
74620;SDS011;64861;47.546;19.254;2022-12-29T06:19:59;9.35;;;5.22;;
74620;SDS011;64861;47.546;19.254;2022-12-29T06:22:24;10.10;;;5.18;;
74620;SDS011;64861;47.546;19.254;2022-12-29T06:24:50;9.18;;;4.95;;
74620;SDS011;64861;47.546;19.254;2022-12-29T06:27:15;9.85;;;5.47;;
74620;SDS011;64861;47.546;19.254;2022-12-29T06:29:41;10.00;;;5.63;;
74620;SDS011;64861;47.546;19.254;2022-12-29T06:32:07;9.25;;;5.28;;
74620;SDS011;64861;47.546;19.254;2022-12-29T06:34:33;8.50;;;5.07;;
74620;SDS011;64861;47.546;19.254;2022-12-29T06:36:59;9.27;;;5.07;;
74620;SDS011;64861;47.546;19.254;2022-12-29T06:39:24;8.38;;;5.10;;
74620;SDS011;64861;47.546;19.254;2022-12-29T06:41:53;10.48;;;5.78;;
74620;SDS011;64861;47.546;19.254;2022-12-29T06:44:20;8.90;;;5.40;;
74620;SDS011;64861;47.546;19.254;2022-12-29T06:46:46;8.85;;;5.22;;
74620;SDS011;64861;47.546;19.254;2022-12-29T06:49:12;8.43;;;5.22;;
74620;SDS011;64861;47.546;19.254;2022-12-29T06:51:37;10.23;;;5.47;;
74620;SDS011;64861;47.546;19.254;2022-12-29T06:54:03;9.45;;;5.50;;
74620;SDS011;64861;47.546;19.254;2022-12-29T06:56:28;10.02;;;5.80;;
74620;SDS011;64861;47.546;19.254;2022-12-29T06:58:54;9.25;;;5.50;;
74620;SDS011;64861;47.546;19.254;2022-12-29T07:01:19;9.30;;;5.40;;
74620;SDS011;64861;47.546;19.254;2022-12-29T07:03:44;8.77;;;5.38;;
74620;SDS011;64861;47.546;19.254;2022-12-29T07:06:10;9.48;;;5.90;;
74620;SDS011;64861;47.546;19.254;2022-12-29T07:08:35;9.63;;;5.72;;
74620;SDS011;64861;47.546;19.254;2022-12-29T07:11:01;9.90;;;5.68;;
74620;SDS011;64861;47.546;19.254;2022-12-29T07:13:26;9.60;;;5.82;;
74620;SDS011;64861;47.546;19.254;2022-12-29T07:15:52;9.13;;;5.85;;
74620;SDS011;64861;47.546;19.254;2022-12-29T07:18:17;9.95;;;5.93;;
74620;SDS011;64861;47.546;19.254;2022-12-29T07:20:43;10.50;;;6.05;;
74620;SDS011;64861;47.546;19.254;2022-12-29T07:23:08;10.48;;;5.90;;
74620;SDS011;64861;47.546;19.254;2022-12-29T07:25:34;9.68;;;5.60;;
74620;SDS011;64861;47.546;19.254;2022-12-29T07:28:01;9.52;;;5.68;;
74620;SDS011;64861;47.546;19.254;2022-12-29T07:30:26;8.80;;;5.55;;
74620;SDS011;64861;47.546;19.254;2022-12-29T07:32:52;9.38;;;5.65;;
74620;SDS011;64861;47.546;19.254;2022-12-29T07:35:17;10.60;;;6.30;;
74620;SDS011;64861;47.546;19.254;2022-12-29T07:37:43;10.00;;;6.25;;
74620;SDS011;64861;47.546;19.254;2022-12-29T07:40:09;8.95;;;5.45;;
74620;SDS011;64861;47.546;19.254;2022-12-29T07:42:35;9.45;;;5.95;;
74620;SDS011;64861;47.546;19.254;2022-12-29T07:45:00;11.35;;;6.13;;
74620;SDS011;64861;47.546;19.254;2022-12-29T07:47:26;9.48;;;5.90;;
74620;SDS011;64861;47.546;19.254;2022-12-29T07:49:52;9.82;;;5.78;;
74620;SDS011;64861;47.546;19.254;2022-12-29T07:52:17;9.90;;;5.85;;
74620;SDS011;64861;47.546;19.254;2022-12-29T07:54:43;10.35;;;6.00;;
74620;SDS011;64861;47.546;19.254;2022-12-29T07:57:08;9.85;;;6.10;;
74620;SDS011;64861;47.546;19.254;2022-12-29T07:59:34;10.18;;;5.85;;
74620;SDS011;64861;47.546;19.254;2022-12-29T08:02:00;9.40;;;5.85;;
74620;SDS011;64861;47.546;19.254;2022-12-29T08:04:25;10.30;;;6.03;;
74620;SDS011;64861;47.546;19.254;2022-12-29T08:06:51;9.50;;;5.90;;
74620;SDS011;64861;47.546;19.254;2022-12-29T08:09:16;8.93;;;5.40;;
74620;SDS011;64861;47.546;19.254;2022-12-29T08:11:42;10.40;;;6.10;;
74620;SDS011;64861;47.546;19.254;2022-12-29T08:14:08;10.05;;;6.05;;
74620;SDS011;64861;47.546;19.254;2022-12-29T08:16:34;10.85;;;6.22;;
74620;SDS011;64861;47.546;19.254;2022-12-29T08:19:00;8.85;;;5.43;;
74620;SDS011;64861;47.546;19.254;2022-12-29T08:21:26;10.45;;;5.95;;
74620;SDS011;64861;47.546;19.254;2022-12-29T08:23:52;9.98;;;5.95;;
74620;SDS011;64861;47.546;19.254;2022-12-29T08:26:18;9.50;;;5.75;;
74620;SDS011;64861;47.546;19.254;2022-12-29T08:28:43;9.98;;;5.78;;
74620;SDS011;64861;47.546;19.254;2022-12-29T08:31:09;8.98;;;5.75;;
74620;SDS011;64861;47.546;19.254;2022-12-29T08:33:34;9.35;;;5.82;;
74620;SDS011;64861;47.546;19.254;2022-12-29T08:36:03;10.43;;;6.20;;
74620;SDS011;64861;47.546;19.254;2022-12-29T08:38:31;10.90;;;6.63;;
74620;SDS011;64861;47.546;19.254;2022-12-29T08:40:57;8.45;;;5.32;;
74620;SDS011;64861;47.546;19.254;2022-12-29T08:43:24;10.05;;;6.25;;
74620;SDS011;64861;47.546;19.254;2022-12-29T08:45:50;10.90;;;6.32;;
74620;SDS011;64861;47.546;19.254;2022-12-29T08:48:16;9.25;;;5.90;;
74620;SDS011;64861;47.546;19.254;2022-12-29T08:50:44;10.75;;;5.53;;
74620;SDS011;64861;47.546;19.254;2022-12-29T08:53:11;10.27;;;6.35;;
74620;SDS011;64861;47.546;19.254;2022-12-29T08:55:36;10.10;;;6.32;;
74620;SDS011;64861;47.546;19.254;2022-12-29T08:58:02;9.68;;;5.97;;
74620;SDS011;64861;47.546;19.254;2022-12-29T09:00:27;9.75;;;6.25;;
74620;SDS011;64861;47.546;19.254;2022-12-29T09:02:53;9.57;;;5.75;;
74620;SDS011;64861;47.546;19.254;2022-12-29T09:05:18;11.40;;;6.57;;
74620;SDS011;64861;47.546;19.254;2022-12-29T09:07:43;9.40;;;6.15;;
74620;SDS011;64861;47.546;19.254;2022-12-29T09:10:09;8.80;;;5.82;;
74620;SDS011;64861;47.546;19.254;2022-12-29T09:12:35;9.27;;;5.70;;
74620;SDS011;64861;47.546;19.254;2022-12-29T09:15:02;9.65;;;6.10;;
74620;SDS011;64861;47.546;19.254;2022-12-29T09:17:28;10.43;;;5.88;;
74620;SDS011;64861;47.546;19.254;2022-12-29T09:20:10;9.88;;;6.00;;
74620;SDS011;64861;47.546;19.254;2022-12-29T09:22:36;10.35;;;6.03;;
74620;SDS011;64861;47.546;19.254;2022-12-29T09:25:01;9.25;;;5.85;;
74620;SDS011;64861;47.546;19.254;2022-12-29T09:27:27;8.93;;;5.30;;
74620;SDS011;64861;47.546;19.254;2022-12-29T09:29:52;9.70;;;5.85;;
74620;SDS011;64861;47.546;19.254;2022-12-29T09:32:18;9.32;;;5.63;;
74620;SDS011;64861;47.546;19.254;2022-12-29T09:34:43;9.48;;;5.95;;
74620;SDS011;64861;47.546;19.254;2022-12-29T09:37:10;10.13;;;5.93;;
74620;SDS011;64861;47.546;19.254;2022-12-29T09:39:35;9.27;;;6.00;;
74620;SDS011;64861;47.546;19.254;2022-12-29T09:47:13;9.32;;;6.20;;
74620;SDS011;64861;47.546;19.254;2022-12-29T09:52:13;9.80;;;5.80;;
74620;SDS011;64861;47.546;19.254;2022-12-29T09:57:21;9.35;;;5.60;;
74620;SDS011;64861;47.546;19.254;2022-12-29T09:59:50;9.25;;;6.10;;
74620;SDS011;64861;47.546;19.254;2022-12-29T10:02:32;9.98;;;6.18;;
74620;SDS011;64861;47.546;19.254;2022-12-29T10:05:02;9.77;;;6.30;;
74620;SDS011;64861;47.546;19.254;2022-12-29T10:07:43;10.07;;;6.53;;
74620;SDS011;64861;47.546;19.254;2022-12-29T10:10:38;9.77;;;5.60;;
74620;SDS011;64861;47.546;19.254;2022-12-29T10:15:46;9.82;;;6.20;;
74620;SDS011;64861;47.546;19.254;2022-12-29T10:21:05;10.55;;;6.10;;
74620;SDS011;64861;47.546;19.254;2022-12-29T10:23:42;9.27;;;5.63;;
74620;SDS011;64861;47.546;19.254;2022-12-29T10:26:16;8.55;;;5.55;;
74620;SDS011;64861;47.546;19.254;2022-12-29T10:28:55;9.27;;;5.95;;
74620;SDS011;64861;47.546;19.254;2022-12-29T10:32:11;9.18;;;5.80;;
74620;SDS011;64861;47.546;19.254;2022-12-29T10:34:29;10.45;;;6.20;;
74620;SDS011;64861;47.546;19.254;2022-12-29T10:37:09;9.73;;;5.55;;
74620;SDS011;64861;47.546;19.254;2022-12-29T10:42:37;9.80;;;6.00;;
74620;SDS011;64861;47.546;19.254;2022-12-29T10:45:11;9.02;;;5.93;;
74620;SDS011;64861;47.546;19.254;2022-12-29T10:47:44;8.82;;;5.93;;
74620;SDS011;64861;47.546;19.254;2022-12-29T10:50:16;9.18;;;5.70;;
74620;SDS011;64861;47.546;19.254;2022-12-29T10:52:42;11.65;;;6.13;;
74620;SDS011;64861;47.546;19.254;2022-12-29T10:55:15;9.55;;;6.10;;
74620;SDS011;64861;47.546;19.254;2022-12-29T10:57:46;9.93;;;5.97;;
74620;SDS011;64861;47.546;19.254;2022-12-29T11:00:13;9.30;;;5.70;;
74620;SDS011;64861;47.546;19.254;2022-12-29T11:02:59;10.20;;;5.90;;
74620;SDS011;64861;47.546;19.254;2022-12-29T11:08:38;9.90;;;6.38;;
74620;SDS011;64861;47.546;19.254;2022-12-29T11:11:10;10.10;;;6.22;;
74620;SDS011;64861;47.546;19.254;2022-12-29T11:13:49;10.63;;;6.15;;
74620;SDS011;64861;47.546;19.254;2022-12-29T11:16:26;9.90;;;6.07;;
74620;SDS011;64861;47.546;19.254;2022-12-29T11:18:57;8.90;;;5.90;;
74620;SDS011;64861;47.546;19.254;2022-12-29T11:21:28;9.35;;;5.43;;
74620;SDS011;64861;47.546;19.254;2022-12-29T11:24:04;9.13;;;5.63;;
74620;SDS011;64861;47.546;19.254;2022-12-29T11:26:31;9.77;;;5.78;;
74620;SDS011;64861;47.546;19.254;2022-12-29T11:34:33;10.57;;;6.25;;
74620;SDS011;64861;47.546;19.254;2022-12-29T11:37:06;8.60;;;5.63;;
74620;SDS011;64861;47.546;19.254;2022-12-29T11:39:41;10.90;;;6.22;;
74620;SDS011;64861;47.546;19.254;2022-12-29T11:42:16;8.65;;;5.70;;
74620;SDS011;64861;47.546;19.254;2022-12-29T11:44:45;9.27;;;5.53;;
74620;SDS011;64861;47.546;19.254;2022-12-29T11:47:33;9.50;;;6.07;;
74620;SDS011;64861;47.546;19.254;2022-12-29T11:50:02;9.43;;;5.70;;
74620;SDS011;64861;47.546;19.254;2022-12-29T11:52:32;8.93;;;6.38;;
74620;SDS011;64861;47.546;19.254;2022-12-29T11:55:03;11.75;;;6.15;;
74620;SDS011;64861;47.546;19.254;2022-12-29T11:57:32;9.30;;;5.40;;
74620;SDS011;64861;47.546;19.254;2022-12-29T12:00:00;9.43;;;5.85;;
74620;SDS011;64861;47.546;19.254;2022-12-29T12:08:09;10.13;;;6.40;;
74620;SDS011;64861;47.546;19.254;2022-12-29T12:10:41;9.38;;;5.47;;
74620;SDS011;64861;47.546;19.254;2022-12-29T12:13:15;9.65;;;6.00;;
74620;SDS011;64861;47.546;19.254;2022-12-29T12:18:53;9.50;;;5.57;;
74620;SDS011;64861;47.546;19.254;2022-12-29T12:21:34;10.18;;;6.13;;
74620;SDS011;64861;47.546;19.254;2022-12-29T12:26:40;10.00;;;6.15;;
74620;SDS011;64861;47.546;19.254;2022-12-29T12:29:12;9.50;;;6.22;;
74620;SDS011;64861;47.546;19.254;2022-12-29T12:34:29;8.82;;;5.68;;
74620;SDS011;64861;47.546;19.254;2022-12-29T12:45:45;11.80;;;6.85;;
74620;SDS011;64861;47.546;19.254;2022-12-29T12:48:40;9.68;;;5.90;;
74620;SDS011;64861;47.546;19.254;2022-12-29T12:53:49;9.45;;;5.65;;
74620;SDS011;64861;47.546;19.254;2022-12-29T13:13:31;10.38;;;6.15;;
74620;SDS011;64861;47.546;19.254;2022-12-29T13:26:59;11.30;;;6.60;;
74620;SDS011;64861;47.546;19.254;2022-12-29T13:29:36;10.13;;;6.50;;
74620;SDS011;64861;47.546;19.254;2022-12-29T13:37:28;9.90;;;6.30;;
74620;SDS011;64861;47.546;19.254;2022-12-29T13:39:58;11.02;;;6.85;;
74620;SDS011;64861;47.546;19.254;2022-12-29T13:42:28;9.38;;;6.05;;
74620;SDS011;64861;47.546;19.254;2022-12-29T13:45:02;10.23;;;6.75;;
74620;SDS011;64861;47.546;19.254;2022-12-29T13:47:36;10.98;;;6.55;;
74620;SDS011;64861;47.546;19.254;2022-12-29T13:50:08;10.70;;;6.78;;
74620;SDS011;64861;47.546;19.254;2022-12-29T13:53:02;10.45;;;6.70;;
74620;SDS011;64861;47.546;19.254;2022-12-29T13:55:45;10.43;;;6.75;;
74620;SDS011;64861;47.546;19.254;2022-12-29T14:01:17;10.45;;;6.93;;
74620;SDS011;64861;47.546;19.254;2022-12-29T14:06:21;9.73;;;6.68;;
74620;SDS011;64861;47.546;19.254;2022-12-29T14:09:40;10.32;;;6.50;;
74620;SDS011;64861;47.546;19.254;2022-12-29T14:12:00;10.65;;;7.00;;
74620;SDS011;64861;47.546;19.254;2022-12-29T14:14:27;10.45;;;6.60;;
74620;SDS011;64861;47.546;19.254;2022-12-29T14:17:08;11.63;;;6.70;;
74620;SDS011;64861;47.546;19.254;2022-12-29T14:19:36;12.02;;;7.57;;
74620;SDS011;64861;47.546;19.254;2022-12-29T14:22:06;11.45;;;7.13;;
74620;SDS011;64861;47.546;19.254;2022-12-29T14:37:34;11.23;;;6.70;;
74620;SDS011;64861;47.546;19.254;2022-12-29T14:42:50;9.88;;;7.03;;
74620;SDS011;64861;47.546;19.254;2022-12-29T14:47:44;11.18;;;6.85;;
74620;SDS011;64861;47.546;19.254;2022-12-29T14:52:47;11.80;;;7.65;;
74620;SDS011;64861;47.546;19.254;2022-12-29T14:57:41;11.95;;;7.00;;
74620;SDS011;64861;47.546;19.254;2022-12-29T15:02:49;12.00;;;7.40;;
74620;SDS011;64861;47.546;19.254;2022-12-29T15:05:48;12.63;;;7.45;;
74620;SDS011;64861;47.546;19.254;2022-12-29T15:08:18;12.07;;;8.18;;
74620;SDS011;64861;47.546;19.254;2022-12-29T15:11:30;12.45;;;7.43;;
74620;SDS011;64861;47.546;19.254;2022-12-29T15:13:39;10.88;;;7.03;;
74620;SDS011;64861;47.546;19.254;2022-12-29T15:18:56;11.23;;;7.35;;
74620;SDS011;64861;47.546;19.254;2022-12-29T15:21:27;11.68;;;7.72;;
74620;SDS011;64861;47.546;19.254;2022-12-29T15:23:58;11.20;;;7.30;;
74620;SDS011;64861;47.546;19.254;2022-12-29T15:26:35;12.88;;;8.32;;
74620;SDS011;64861;47.546;19.254;2022-12-29T15:29:02;12.65;;;7.95;;
74620;SDS011;64861;47.546;19.254;2022-12-29T15:31:27;11.25;;;7.75;;
74620;SDS011;64861;47.546;19.254;2022-12-29T15:33:54;12.13;;;7.97;;
74620;SDS011;64861;47.546;19.254;2022-12-29T15:36:27;12.07;;;8.10;;
74620;SDS011;64861;47.546;19.254;2022-12-29T15:38:54;11.15;;;7.90;;
74620;SDS011;64861;47.546;19.254;2022-12-29T15:44:20;10.95;;;7.70;;
74620;SDS011;64861;47.546;19.254;2022-12-29T15:46:51;12.80;;;7.63;;
74620;SDS011;64861;47.546;19.254;2022-12-29T15:49:17;11.50;;;8.00;;
74620;SDS011;64861;47.546;19.254;2022-12-29T15:51:43;13.05;;;8.18;;
74620;SDS011;64861;47.546;19.254;2022-12-29T15:54:18;12.40;;;7.85;;
74620;SDS011;64861;47.546;19.254;2022-12-29T15:56:45;11.98;;;7.93;;
74620;SDS011;64861;47.546;19.254;2022-12-29T15:59:22;12.85;;;8.00;;
74620;SDS011;64861;47.546;19.254;2022-12-29T16:01:49;12.25;;;8.63;;
74620;SDS011;64861;47.546;19.254;2022-12-29T16:04:15;11.60;;;7.95;;
74620;SDS011;64861;47.546;19.254;2022-12-29T16:06:45;12.63;;;8.63;;
74620;SDS011;64861;47.546;19.254;2022-12-29T16:11:59;13.02;;;8.43;;
74620;SDS011;64861;47.546;19.254;2022-12-29T16:14:42;12.80;;;8.93;;
74620;SDS011;64861;47.546;19.254;2022-12-29T16:17:13;12.43;;;8.68;;
74620;SDS011;64861;47.546;19.254;2022-12-29T16:19:48;12.68;;;8.73;;
74620;SDS011;64861;47.546;19.254;2022-12-29T16:22:27;13.10;;;8.27;;
74620;SDS011;64861;47.546;19.254;2022-12-29T16:25:13;12.77;;;8.70;;
74620;SDS011;64861;47.546;19.254;2022-12-29T16:27:44;14.57;;;9.23;;
74620;SDS011;64861;47.546;19.254;2022-12-29T16:30:28;12.85;;;8.63;;
74620;SDS011;64861;47.546;19.254;2022-12-29T16:32:57;14.85;;;8.65;;
74620;SDS011;64861;47.546;19.254;2022-12-29T16:43:22;15.27;;;9.23;;
74620;SDS011;64861;47.546;19.254;2022-12-29T16:50:41;13.15;;;8.85;;
74620;SDS011;64861;47.546;19.254;2022-12-29T16:55:54;12.93;;;8.40;;
74620;SDS011;64861;47.546;19.254;2022-12-29T16:58:23;13.55;;;9.00;;
74620;SDS011;64861;47.546;19.254;2022-12-29T17:00:54;13.35;;;8.70;;
74620;SDS011;64861;47.546;19.254;2022-12-29T17:03:21;14.05;;;8.93;;
74620;SDS011;64861;47.546;19.254;2022-12-29T17:05:47;13.52;;;8.70;;
74620;SDS011;64861;47.546;19.254;2022-12-29T17:08:19;12.70;;;9.07;;
74620;SDS011;64861;47.546;19.254;2022-12-29T17:10:52;13.05;;;8.88;;
74620;SDS011;64861;47.546;19.254;2022-12-29T17:13:40;14.57;;;8.98;;
74620;SDS011;64861;47.546;19.254;2022-12-29T17:16:06;12.48;;;8.82;;
74620;SDS011;64861;47.546;19.254;2022-12-29T17:18:34;12.63;;;8.70;;
74620;SDS011;64861;47.546;19.254;2022-12-29T17:20:59;13.48;;;9.20;;
74620;SDS011;64861;47.546;19.254;2022-12-29T17:23:25;12.60;;;8.75;;
74620;SDS011;64861;47.546;19.254;2022-12-29T17:25:51;14.50;;;9.10;;
74620;SDS011;64861;47.546;19.254;2022-12-29T17:28:20;13.48;;;9.27;;
74620;SDS011;64861;47.546;19.254;2022-12-29T17:30:47;13.95;;;9.60;;